Albion, Michigan
Current Conditions -  °F | °C
As of 11:14 AM on Wednesday 26 Nov 2014 (Local Time) from KRMY Reporting Station
Overcast Overcast  
Wind Chill: 22°   Ceiling: 2400
Heat Index: 28°   Visibility: 10mi
Dew Point: 20°   Wind: 5mph
Humidity: 74%   Direction: 120°ESE
Pressure: 30.14"   Gusts: NA
Location:  42.25°N, 84.75°W
Report Text: KRMY 261614Z AUTO 12004KT 10SM OVC024 M02/M07 A3014 RMK AO2 T10251066
Loading
Personal Weather Stations






























Interactive Weather Map New forecast layout! Learn more

10-Day Weather Forecast

Advertisements
Track Severe Weather on mobile